Relevés horaires Oostende (Belgique)


Relevés horaires à Oostende - Jeudi 18 Nov. 2021
Heure UTC1 Température [°C] Vent [km/h] Hum. [%] Pres.4 [hPa] Visi. [Km] Nébu. [octa] Préc.5 [mm] Cond.
2m. Res. Ros. Dir.2 Vit. Moy. Raf.3
23:00 10.5 9.3 9.4 SO 9.3 9.3 13.0 93 1030.3(0.1/3h) 12 8/8 -- --
22:00 10.6 9.8 9.4 SO 7.4 9.3 11.1 92 1030.5(0.6/3h) 12 8/8 -- --
21:00 11.3 10.3 9.8 OSO 9.3 11.1 16.7 90 1030.4(1.1/3h) 12 8/8 -- --
20:00 11.3 10.3 9.6 O 9.3 11.1 14.8 89 1030.2(0.7/3h) 12 8/8 -- --
19:00 11.3 10 9.9 O 11.1 11.1 16.7 91 1029.9(0.9/3h) 12 8/8 -- --
18:00 10.4 9.2 9.2 OSO 9.3 -- -- 92 1029.3(0.5/3h) 12 7/8 0/12h
--
17:00 10.3 9.1 9.0 OSO 9.3 14.8 18.5 92 1029.4(0.8/3h) 12 6/8 -- --
16:00 10.9 9 9.1 O 14.8 14.8 18.5 89 1029(-0.1/3h) 12 6/8 -- --
15:00 11.6 10.1 8.7 OSO 13.0 16.7 22.2 82 1028.8(-0.4/3h) 15 6/8 -- --
14:00 11.9 10.3 9.0 O 14.8 16.7 22.2 82 1028.6(-1.0/3h) 15 5/8 -- --
13:00 11.8 10.2 8.8 OSO 14.8 16.7 22.2 82 1028.9(-0.8/3h) 15 4/8 -- --
12:00 11.5 10.3 8.3 OSO 11.1 -- -- 81 1029.3(-0.3/3h) 15 5/8 0/6h
--
11:00 9.8 8.9 7.1 SO 7.4 9.3 11.1 83 1029.6(0.4/3h) 15 4/8 -- --
10:00 7.8 6.6 6.4 SSO 7.4 7.4 9.3 91 1029.7(0.9/3h) 15 4/8 -- --
09:00 6.0 4.5 5.1 SO 7.4 9.3 11.1 94 1029.6(1.2/3h) 15 3/8 -- --
08:00 4.2 2.4 3.2 SO 7.4 7.4 9.3 93 1029.3(0.4/3h) 14 4/8 -- --
07:00 4.0 2.1 3.6 SO 7.4 9.3 9.3 97 1028.8(-0.1/3h) 9 3/8 -- --
06:00 4.1 2.2 3.4 SO 7.4 -- -- 95 1028.4(-0.4/3h) 9 5/8 0/12h
--
05:00 3.7 1.8 3.2 SO 7.4 7.4 9.3 97 1028.8(0.5/3h) 9 2/8 -- --
04:00 4.0 2.1 3.1 SO 7.4 7.4 9.3 94 1028.8(0.7/3h) 9 2/8 -- --
03:00 3.5 3.5 2.9 SO 3.7 7.4 9.3 96 1028.8(0.7/3h) 10 4/8 -- --
02:00 3.7 2.4 3.3 SSO 5.6 5.6 5.6 97 1028.3(0.2/3h) 10 4/8 -- --
01:00 3.9 3.9 3.2 SO 3.7 7.4 9.3 95 1028.1(0.0/3h) 10 4/8 -- --
00:00 5.4 3.8 4.5 SO 7.4 -- -- 94 1028.1(0.3/3h) 12 2/8 0/6h
999/24h
--

1 Coordinated Universal Time. Actuellement il est 17:00 locale et 15:00 UTC.

2 Le vent souffle depuis la direction indiquée vers la direction oposée.

3 Les rafales max. sont disponible 40 min après l'heure du relevé.

4 Pour les stations d'altitude (plus de 600m) le géopotentiel du niveau le plus proche de la pression obligatoire est indiqué.

5 Les stations disposant d'un diffuseur peuvent indiquer "trace". Cela signifie que des précipitations ont touchés le sol mais que la quantité est inférieure à 0.1 mm.

Récapitulatif de la journée
Température [°C] Vent [km/h] Ensoleillement4 [h] Precipitations totale5 [mm] Pression [Hpa]
Min1 Max.2 Moy.3 Max. Min Max.
3.2 12.1 10.5 22.2 0 h 0 min 0 1028.1 1030.5

1 Température minimale relevée entre 18:00 UTC la veille et 18:00 UTC le jour donné.

2 Température maximale relevée entre 06:00 UTC le jour donné et 06:00 UTC le lendemain.

3 Vent moyen de la journée basé sur les relevés horaires.

4 Ensoleillement en heures relevé entre 06:00 UTC la veille et 06:00 UTC le jour donné.

5 Précipitations totales tombées entre 06:00 UTC la jour donné et 06:00 UTC le lendemain.

Graphiques horaires